Time;durP1;ratioP1;P1;durP2;ratioP2;P2;SDS_P1;SDS_P2;PMS_P1;PMS_P2;Temp;Humidity;BMP_temperature;BMP_pressure;BME280_temperature;BME280_humidity;BME280_pressure;Samples;Min_cycle;Max_cycle;Signal;HPM_P1;HPM_P2
2021/09/01 00:00:09;;;;;;;3.60;2.33;;;21.90;60.20;;;;;;4926269;29;20407;-69
2021/09/01 00:02:35;;;;;;;3.28;2.40;;;22.00;60.10;;;;;;4924311;29;20459;-69
2021/09/01 00:05:01;;;;;;;3.37;2.43;;;22.00;60.10;;;;;;4926183;29;20407;-70
2021/09/01 00:07:26;;;;;;;3.75;2.25;;;21.90;60.20;;;;;;4925541;29;20424;-69
2021/09/01 00:09:52;;;;;;;2.83;2.20;;;22.00;60.30;;;;;;4925823;29;20817;-70
2021/09/01 00:12:17;;;;;;;2.97;2.30;;;21.90;60.30;;;;;;4926159;29;20451;-70
2021/09/01 00:14:43;;;;;;;3.17;2.20;;;21.90;60.10;;;;;;4925819;29;20492;-70
2021/09/01 00:17:09;;;;;;;3.20;2.40;;;21.90;60.20;;;;;;4926169;29;20455;-69
2021/09/01 00:19:34;;;;;;;3.30;2.50;;;21.90;60.20;;;;;;4925229;29;20491;-69
2021/09/01 00:22:00;;;;;;;3.22;2.30;;;22.00;60.20;;;;;;4924297;29;20423;-69
2021/09/01 00:24:26;;;;;;;2.80;2.10;;;21.90;60.00;;;;;;4926247;29;20983;-69
2021/09/01 00:26:52;;;;;;;3.15;2.20;;;21.90;60.10;;;;;;4924620;29;21002;-69
2021/09/01 00:29:19;;;;;;;2.42;2.10;;;21.90;60.00;;;;;;4925444;29;20412;-69
2021/09/01 00:31:45;;;;;;;3.28;2.33;;;22.00;60.20;;;;;;4925513;29;20400;-70
2021/09/01 00:34:10;;;;;;;3.10;2.30;;;21.90;60.10;;;;;;4925168;29;20423;-69
2021/09/01 00:36:36;;;;;;;2.70;2.08;;;21.90;60.10;;;;;;4925434;29;20657;-69
2021/09/01 00:39:02;;;;;;;3.00;2.40;;;21.90;60.00;;;;;;4925440;29;20401;-69
2021/09/01 00:41:29;;;;;;;3.03;2.05;;;21.90;60.00;;;;;;4925542;29;20415;-70
2021/09/01 00:44:21;;;;;;;2.77;2.10;;;21.90;60.00;;;;;;4925668;29;20400;-69
2021/09/01 00:46:47;;;;;;;2.67;2.10;;;21.90;60.10;;;;;;4920588;29;20418;-69
2021/09/01 00:49:14;;;;;;;3.08;2.17;;;21.90;60.00;;;;;;4924969;29;20434;-69
2021/09/01 00:51:47;;;;;;;2.92;2.30;;;21.90;60.00;;;;;;4923818;29;20426;-69
2021/09/01 00:54:21;;;;;;;3.05;2.13;;;21.90;60.00;;;;;;4925047;29;20454;-69
2021/09/01 00:56:50;;;;;;;2.63;2.00;;;21.90;60.10;;;;;;4924781;29;20387;-69
2021/09/01 00:59:18;;;;;;;2.88;2.28;;;21.90;60.00;;;;;;4925029;29;20400;-69
2021/09/01 01:01:45;;;;;;;2.30;2.00;;;21.90;60.00;;;;;;4924368;29;20454;-69
2021/09/01 01:04:11;;;;;;;2.38;2.00;;;21.90;60.00;;;;;;4922931;29;20904;-69
2021/09/01 01:06:36;;;;;;;2.70;2.13;;;21.80;59.90;;;;;;4924418;29;20462;-69
2021/09/01 01:09:02;;;;;;;3.10;2.30;;;21.80;60.00;;;;;;4924785;29;20484;-70
2021/09/01 01:11:29;;;;;;;2.50;2.08;;;21.80;60.00;;;;;;4925120;29;20424;-69
2021/09/01 01:13:55;;;;;;;2.57;2.00;;;21.80;59.90;;;;;;4925137;29;20920;-70
2021/09/01 01:16:26;;;;;;;2.30;1.80;;;21.80;60.00;;;;;;4925839;29;20450;-69
2021/09/01 01:18:55;;;;;;;2.70;1.95;;;21.90;60.00;;;;;;4925831;29;20414;-69
2021/09/01 01:21:24;;;;;;;3.90;2.10;;;21.90;60.20;;;;;;4928328;29;20392;-69
2021/09/01 01:23:58;;;;;;;3.90;2.17;;;21.90;60.20;;;;;;4929343;29;21565;-69
2021/09/01 01:26:25;;;;;;;2.45;1.90;;;21.90;60.30;;;;;;4926017;29;20407;-69
2021/09/01 01:28:57;;;;;;;5.63;2.30;;;21.90;60.30;;;;;;4925177;29;20854;-69
2021/09/01 01:31:23;;;;;;;4.97;2.00;;;22.00;60.40;;;;;;4925647;29;21097;-69
2021/09/01 01:33:49;;;;;;;3.70;2.03;;;22.00;60.30;;;;;;4924981;29;20407;-69
2021/09/01 01:36:15;;;;;;;4.72;2.05;;;21.90;60.40;;;;;;4925569;29;20395;-69
2021/09/01 01:38:41;;;;;;;3.50;2.00;;;21.90;60.40;;;;;;4925328;29;20884;-69
2021/09/01 01:41:07;;;;;;;3.13;2.00;;;21.90;60.40;;;;;;4925567;29;20418;-69
2021/09/01 01:43:36;;;;;;;3.67;2.20;;;21.90;60.40;;;;;;4925028;29;20404;-69
2021/09/01 01:46:06;;;;;;;2.42;1.77;;;21.90;60.40;;;;;;4925299;29;20556;-69
2021/09/01 01:48:33;;;;;;;2.80;1.80;;;21.90;60.30;;;;;;4923694;29;20998;-69
2021/09/01 01:50:59;;;;;;;3.58;1.90;;;21.90;60.40;;;;;;4925458;29;21380;-69
2021/09/01 01:53:25;;;;;;;2.15;1.70;;;21.90;60.30;;;;;;4923896;29;20497;-69
2021/09/01 01:55:51;;;;;;;3.08;1.80;;;21.90;60.30;;;;;;4924835;29;20404;-69
2021/09/01 01:58:16;;;;;;;2.97;2.03;;;21.80;60.20;;;;;;4925257;29;20871;-69
2021/09/01 02:00:42;;;;;;;2.40;1.95;;;21.90;60.20;;;;;;4939720;29;20404;-69
2021/09/01 02:03:08;;;;;;;2.60;2.00;;;21.80;60.20;;;;;;4925406;29;20463;-69
2021/09/01 02:05:33;;;;;;;2.80;1.80;;;21.80;60.20;;;;;;4924374;29;20482;-69
2021/09/01 02:07:59;;;;;;;3.10;1.77;;;21.80;60.20;;;;;;4924863;29;20518;-69
2021/09/01 02:10:25;;;;;;;2.95;2.00;;;21.80;60.10;;;;;;4928505;29;20900;-70
2021/09/01 02:12:51;;;;;;;3.00;1.90;;;21.80;60.20;;;;;;4929252;29;20427;-69
2021/09/01 02:15:17;;;;;;;2.72;1.90;;;21.80;60.10;;;;;;4929046;29;20761;-69
2021/09/01 02:17:42;;;;;;;2.35;1.70;;;21.80;60.10;;;;;;4917746;29;20503;-69
2021/09/01 02:20:10;;;;;;;2.13;1.70;;;21.80;60.10;;;;;;4929012;29;20494;-69
2021/09/01 02:22:36;;;;;;;3.38;1.85;;;21.80;60.10;;;;;;4928861;29;20410;-69
2021/09/01 02:25:04;;;;;;;2.85;1.90;;;21.80;60.10;;;;;;4928888;29;20406;-69
2021/09/01 02:27:29;;;;;;;3.40;1.90;;;21.80;60.00;;;;;;4928830;29;20446;-69
2021/09/01 02:29:56;;;;;;;2.38;1.98;;;21.80;60.00;;;;;;4928201;29;20403;-70
2021/09/01 02:32:22;;;;;;;2.47;1.73;;;21.80;60.00;;;;;;4929000;29;20391;-69
2021/09/01 02:34:48;;;;;;;2.30;1.90;;;21.80;60.00;;;;;;4928703;29;20832;-69
2021/09/01 02:37:14;;;;;;;2.50;1.90;;;21.80;60.00;;;;;;4928840;29;20395;-69
2021/09/01 02:39:40;;;;;;;2.90;1.80;;;21.80;60.10;;;;;;4928247;29;20410;-69
2021/09/01 02:42:06;;;;;;;3.05;1.70;;;21.80;60.00;;;;;;4928595;29;20395;-69
2021/09/01 02:44:31;;;;;;;2.60;1.90;;;21.70;60.00;;;;;;4928603;29;20420;-69
2021/09/01 02:46:57;;;;;;;3.10;1.77;;;21.70;60.00;;;;;;4928335;29;20403;-70
2021/09/01 02:49:23;;;;;;;2.40;1.67;;;21.70;59.90;;;;;;4928570;29;20399;-69
2021/09/01 02:51:48;;;;;;;2.50;1.80;;;21.70;60.00;;;;;;4927878;29;20741;-69
2021/09/01 02:54:14;;;;;;;2.20;1.80;;;21.80;60.00;;;;;;4928458;29;20399;-70
2021/09/01 02:56:40;;;;;;;2.30;1.73;;;21.70;59.90;;;;;;4922615;29;20407;-69
2021/09/01 02:59:05;;;;;;;2.58;1.70;;;21.70;59.90;;;;;;4928428;29;20399;-69
2021/09/01 03:01:31;;;;;;;2.77;1.90;;;21.70;59.90;;;;;;4928168;29;20407;-70
2021/09/01 03:03:57;;;;;;;2.80;1.88;;;21.70;59.90;;;;;;4928010;29;20422;-69
2021/09/01 03:06:22;;;;;;;2.80;2.00;;;21.70;60.40;;;;;;4928170;29;20399;-70
2021/09/01 03:08:48;;;;;;;4.55;1.90;;;21.80;60.40;;;;;;4927859;29;20927;-69
2021/09/01 03:11:14;;;;;;;3.07;2.00;;;21.80;61.80;;;;;;4926970;29;20427;-69
2021/09/01 03:13:39;;;;;;;2.67;1.88;;;21.90;61.80;;;;;;4927819;29;20418;-69
2021/09/01 03:16:05;;;;;;;3.67;1.87;;;21.90;61.90;;;;;;4928086;29;20412;-69
2021/09/01 03:18:31;;;;;;;3.50;1.90;;;22.00;61.80;;;;;;4927803;29;20403;-69
2021/09/01 03:20:56;;;;;;;2.60;1.83;;;22.00;61.30;;;;;;4928896;29;20399;-70
2021/09/01 03:23:22;;;;;;;3.30;1.87;;;21.90;61.30;;;;;;4928887;29;20407;-69
2021/09/01 03:25:48;;;;;;;2.92;1.80;;;22.00;61.80;;;;;;4927651;29;20391;-69
2021/09/01 03:28:13;;;;;;;3.80;2.00;;;22.00;61.80;;;;;;4927993;29;20522;-70
2021/09/01 03:30:39;;;;;;;2.25;1.73;;;22.00;61.50;;;;;;4922225;29;20514;-69
2021/09/01 03:33:05;;;;;;;2.37;1.93;;;22.10;61.50;;;;;;4927704;29;20399;-69
2021/09/01 03:35:30;;;;;;;3.47;1.73;;;22.10;61.40;;;;;;4926442;29;20403;-70
2021/09/01 03:37:56;;;;;;;2.60;1.80;;;22.10;61.40;;;;;;4927185;29;20958;-69
2021/09/01 03:40:22;;;;;;;3.13;1.80;;;22.10;61.40;;;;;;4927646;29;20395;-70
2021/09/01 03:42:48;;;;;;;2.75;1.63;;;22.10;61.20;;;;;;4927284;29;21006;-69
2021/09/01 03:45:14;;;;;;;3.85;1.83;;;22.00;61.50;;;;;;4927035;29;20499;-69
2021/09/01 03:47:41;;;;;;;2.70;1.75;;;22.10;61.90;;;;;;4926794;29;20427;-69
2021/09/01 03:50:08;;;;;;;2.67;1.63;;;22.10;61.80;;;;;;4926887;29;20401;-69
2021/09/01 03:52:34;;;;;;;4.35;1.77;;;22.20;61.80;;;;;;4915195;29;21221;-69
2021/09/01 03:55:01;;;;;;;5.45;1.80;;;22.20;61.50;;;;;;4941936;29;20481;-69
2021/09/01 03:57:28;;;;;;;2.88;1.73;;;22.20;61.50;;;;;;4926919;29;20419;-69
2021/09/01 03:59:53;;;;;;;3.70;1.75;;;22.20;61.10;;;;;;4926882;29;20740;-69
2021/09/01 04:02:19;;;;;;;3.85;1.92;;;22.10;61.20;;;;;;4926734;29;20865;-68
2021/09/01 04:04:45;;;;;;;5.45;2.00;;;22.10;61.40;;;;;;4927143;29;20815;-67
2021/09/01 04:07:10;;;;;;;6.03;2.03;;;22.10;61.40;;;;;;4927495;29;20459;-67
2021/09/01 04:09:36;;;;;;;6.82;1.80;;;22.00;60.80;;;;;;4925446;29;20422;-67
2021/09/01 04:12:02;;;;;;;7.57;2.00;;;22.00;61.20;;;;;;4927168;29;20431;-68
2021/09/01 04:14:28;;;;;;;5.77;2.07;;;22.00;61.50;;;;;;4926708;29;20533;-68
2021/09/01 04:16:54;;;;;;;6.10;1.92;;;22.00;61.30;;;;;;4926761;29;20542;-68
2021/09/01 04:19:19;;;;;;;8.37;1.70;;;22.00;61.70;;;;;;4926778;29;20435;-68
2021/09/01 04:21:45;;;;;;;5.32;1.77;;;22.00;61.50;;;;;;4926332;29;20406;-68
2021/09/01 04:24:11;;;;;;;5.68;1.80;;;22.00;61.50;;;;;;4926630;29;20423;-67
2021/09/01 04:26:37;;;;;;;5.87;1.80;;;22.00;61.10;;;;;;4926503;29;20403;-68
2021/09/01 04:29:02;;;;;;;4.32;1.77;;;22.00;61.20;;;;;;4926541;29;20434;-67
2021/09/01 04:31:28;;;;;;;3.83;1.70;;;21.90;60.90;;;;;;4925879;29;20410;-67
2021/09/01 04:33:54;;;;;;;4.32;1.92;;;21.90;60.80;;;;;;4924871;29;20422;-67
2021/09/01 04:36:19;;;;;;;4.00;1.80;;;21.90;60.80;;;;;;4926210;29;20396;-68
2021/09/01 04:38:45;;;;;;;3.20;1.95;;;21.90;61.00;;;;;;4926812;29;20482;-68
2021/09/01 04:41:11;;;;;;;3.37;1.73;;;21.90;60.90;;;;;;4926341;29;20402;-68
2021/09/01 04:43:37;;;;;;;5.45;1.77;;;21.90;61.00;;;;;;4926624;29;20486;-68
2021/09/01 04:46:03;;;;;;;4.77;1.90;;;21.90;61.00;;;;;;4925856;29;20869;-68
2021/09/01 04:48:29;;;;;;;4.55;2.00;;;21.90;60.80;;;;;;4926230;29;20923;-68
2021/09/01 04:50:54;;;;;;;6.40;1.90;;;21.90;60.80;;;;;;4926391;29;20407;-68
2021/09/01 04:53:20;;;;;;;3.88;1.80;;;21.90;60.80;;;;;;4926135;29;20411;-68
2021/09/01 04:55:46;;;;;;;3.37;1.60;;;21.90;61.00;;;;;;4925588;29;20407;-67
2021/09/01 04:58:13;;;;;;;3.13;1.67;;;21.80;61.10;;;;;;4926002;29;20403;-68
2021/09/01 05:00:39;;;;;;;3.83;1.80;;;21.80;60.60;;;;;;4926198;29;20388;-67
2021/09/01 05:03:05;;;;;;;2.63;1.70;;;21.80;60.40;;;;;;4926066;29;20730;-67
2021/09/01 05:05:31;;;;;;;4.57;2.00;;;21.80;60.30;;;;;;4924786;29;21037;-67
2021/09/01 05:07:56;;;;;;;2.93;1.70;;;21.80;60.30;;;;;;4925799;29;20542;-67
2021/09/01 05:10:22;;;;;;;2.33;1.70;;;21.80;60.20;;;;;;4915279;29;20848;-67
2021/09/01 05:12:49;;;;;;;3.13;1.67;;;21.80;60.20;;;;;;4924801;29;20412;-68
2021/09/01 05:15:15;;;;;;;3.60;1.85;;;21.80;60.20;;;;;;4924346;29;20408;-68
2021/09/01 05:17:41;;;;;;;2.55;1.73;;;21.80;60.10;;;;;;4940031;29;20426;-68
2021/09/01 05:20:08;;;;;;;3.03;1.80;;;21.80;60.10;;;;;;4925583;29;20781;-68
2021/09/01 05:22:36;;;;;;;3.08;1.60;;;21.80;60.10;;;;;;4940244;29;21099;-68
2021/09/01 05:25:11;;;;;;;4.85;1.75;;;21.80;60.00;;;;;;4925903;29;20435;-67
2021/09/01 05:27:40;;;;;;;4.45;1.85;;;21.70;60.00;;;;;;4925609;29;20772;-68
2021/09/01 05:30:11;;;;;;;2.65;1.60;;;21.80;60.00;;;;;;4925279;29;20408;-67
2021/09/01 05:32:39;;;;;;;2.58;1.73;;;21.80;60.00;;;;;;4913655;29;20495;-67
2021/09/01 05:35:06;;;;;;;2.53;1.80;;;21.70;60.00;;;;;;4925369;29;20411;-68
2021/09/01 05:37:34;;;;;;;2.30;1.80;;;21.80;60.00;;;;;;4925705;29;20837;-68
2021/09/01 05:40:01;;;;;;;2.00;1.58;;;21.70;59.90;;;;;;4925186;29;20399;-68
2021/09/01 05:42:29;;;;;;;3.08;1.60;;;21.70;60.00;;;;;;4925405;29;20972;-67
2021/09/01 05:44:56;;;;;;;2.42;1.70;;;21.70;60.00;;;;;;4925383;29;20415;-67
2021/09/01 05:47:23;;;;;;;3.10;1.73;;;21.70;60.00;;;;;;4925342;29;20730;-67
2021/09/01 05:49:50;;;;;;;2.17;1.60;;;21.70;59.90;;;;;;4925050;29;20769;-68
2021/09/01 05:52:17;;;;;;;2.30;1.70;;;21.70;60.00;;;;;;4912896;29;20490;-67
2021/09/01 05:54:47;;;;;;;2.22;1.50;;;21.70;59.90;;;;;;4923910;29;21047;-68
2021/09/01 05:57:15;;;;;;;3.38;1.67;;;21.70;60.00;;;;;;4925054;29;20388;-68
2021/09/01 06:00:03;;;;;;;2.47;1.60;;;21.70;60.00;;;;;;4925401;29;20391;-67
2021/09/01 06:02:38;;;;;;;2.95;1.80;;;21.70;60.10;;;;;;4924943;29;20883;-67
2021/09/01 06:05:06;;;;;;;2.60;1.80;;;21.70;60.10;;;;;;4925093;29;20399;-67
2021/09/01 06:07:33;;;;;;;2.17;1.53;;;21.70;60.10;;;;;;4924943;29;20631;-68
2021/09/01 06:10:00;;;;;;;2.35;1.60;;;21.70;60.00;;;;;;4924809;29;20519;-68
2021/09/01 06:12:28;;;;;;;2.25;1.60;;;21.70;60.00;;;;;;4923889;29;20831;-68
2021/09/01 06:14:54;;;;;;;2.15;1.65;;;21.70;60.10;;;;;;4925134;29;20407;-67
2021/09/01 06:17:20;;;;;;;2.75;1.60;;;21.60;60.10;;;;;;4925161;29;20507;-67
2021/09/01 06:19:46;;;;;;;1.80;1.30;;;21.70;60.10;;;;;;4924785;29;20549;-67
2021/09/01 06:22:13;;;;;;;1.92;1.58;;;21.70;60.20;;;;;;4925083;29;20400;-68
2021/09/01 06:24:39;;;;;;;2.35;1.48;;;21.70;60.20;;;;;;4925117;29;20903;-67
2021/09/01 06:27:05;;;;;;;1.83;1.40;;;21.70;60.10;;;;;;4910339;29;20439;-67
2021/09/01 06:29:31;;;;;;;1.90;1.60;;;21.70;60.10;;;;;;4924943;29;20901;-67
2021/09/01 06:31:57;;;;;;;2.17;1.60;;;21.70;60.20;;;;;;4924413;29;20834;-67
2021/09/01 06:34:23;;;;;;;2.33;1.57;;;21.70;60.30;;;;;;4925214;29;20781;-67
2021/09/01 06:36:49;;;;;;;3.03;1.73;;;21.70;60.20;;;;;;4924863;29;20399;-68
2021/09/01 06:39:15;;;;;;;2.45;1.60;;;21.70;60.10;;;;;;4939614;29;20407;-68
2021/09/01 06:41:40;;;;;;;4.22;1.60;;;21.70;60.10;;;;;;4924977;29;20403;-67
2021/09/01 06:44:06;;;;;;;2.33;1.80;;;21.70;60.20;;;;;;4924482;29;20432;-67
2021/09/01 06:46:32;;;;;;;2.25;1.75;;;21.70;60.20;;;;;;4924867;29;20972;-68
2021/09/01 06:48:58;;;;;;;1.80;1.45;;;21.70;60.30;;;;;;4923423;29;20427;-68
2021/09/01 06:51:23;;;;;;;2.07;1.60;;;21.70;60.20;;;;;;4925048;29;20395;-68
2021/09/01 06:53:49;;;;;;;2.17;1.60;;;21.70;60.20;;;;;;4924628;29;20395;-68
2021/09/01 06:56:15;;;;;;;2.03;1.60;;;21.70;60.20;;;;;;4918219;29;20408;-68
2021/09/01 06:58:40;;;;;;;2.33;1.70;;;21.60;60.10;;;;;;4928384;29;20407;-67
2021/09/01 07:01:06;;;;;;;2.10;1.30;;;21.70;60.20;;;;;;4927075;29;20482;-68
2021/09/01 07:03:31;;;;;;;2.38;1.55;;;21.60;60.10;;;;;;4928265;29;20392;-67
2021/09/01 07:05:57;;;;;;;2.47;1.50;;;21.70;60.60;;;;;;4928008;29;20430;-68
2021/09/01 07:08:23;;;;;;;2.08;1.60;;;21.70;60.10;;;;;;4928162;29;20442;-68
2021/09/01 07:10:50;;;;;;;2.33;1.83;;;21.70;60.10;;;;;;4928352;29;20420;-68
2021/09/01 07:13:17;;;;;;;2.20;1.90;;;21.70;60.20;;;;;;4927891;29;20482;-67
2021/09/01 07:15:44;;;;;;;2.08;1.60;;;21.70;60.20;;;;;;4927734;29;20426;-68
2021/09/01 07:18:11;;;;;;;2.25;1.70;;;21.70;60.10;;;;;;4927993;29;20435;-68
2021/09/01 07:20:38;;;;;;;2.40;1.60;;;21.70;60.20;;;;;;4928174;29;20486;-67
2021/09/01 07:23:04;;;;;;;2.30;1.80;;;21.70;60.20;;;;;;4927788;29;20395;-68
2021/09/01 07:25:32;;;;;;;2.55;1.70;;;21.70;60.20;;;;;;4918745;29;20406;-68
2021/09/01 07:27:59;;;;;;;2.25;1.55;;;21.70;60.30;;;;;;4927618;29;20915;-68
2021/09/01 07:30:25;;;;;;;2.08;1.80;;;21.70;60.20;;;;;;4927678;29;20411;-67
2021/09/01 07:32:50;;;;;;;2.22;1.80;;;21.70;60.40;;;;;;4926501;29;20414;-68
2021/09/01 07:35:16;;;;;;;2.30;1.83;;;21.70;60.40;;;;;;4927543;29;20955;-67
2021/09/01 07:37:47;;;;;;;2.40;1.90;;;21.70;60.10;;;;;;4927806;29;20391;-68
2021/09/01 07:40:14;;;;;;;2.27;1.80;;;21.70;60.40;;;;;;4927060;29;20892;-68
2021/09/01 07:42:40;;;;;;;2.40;2.00;;;21.70;60.40;;;;;;4926477;29;20406;-67
2021/09/01 07:45:07;;;;;;;2.40;1.70;;;21.70;60.40;;;;;;4927496;29;20396;-68
2021/09/01 07:47:32;;;;;;;2.40;1.88;;;21.70;60.40;;;;;;4927371;29;20896;-68
2021/09/01 07:49:58;;;;;;;2.22;2.00;;;21.80;60.40;;;;;;4926815;29;20418;-68
2021/09/01 07:52:24;;;;;;;2.03;1.73;;;21.70;60.40;;;;;;4927354;29;20458;-67
2021/09/01 07:54:49;;;;;;;2.78;2.00;;;21.70;60.40;;;;;;4915928;29;20768;-67
2021/09/01 07:57:15;;;;;;;2.28;1.90;;;21.70;60.40;;;;;;4941559;29;21173;-68
2021/09/01 07:59:41;;;;;;;2.50;1.77;;;21.70;60.40;;;;;;4926184;29;20415;-68
2021/09/01 08:02:06;;;;;;;2.37;1.90;;;21.70;60.40;;;;;;4926721;29;20396;-67
2021/09/01 08:04:32;;;;;;;2.60;1.70;;;21.60;60.20;;;;;;4927258;29;20400;-67
2021/09/01 08:06:58;;;;;;;2.80;1.97;;;21.70;60.10;;;;;;4926016;29;20403;-67
2021/09/01 08:09:24;;;;;;;2.13;1.80;;;21.70;60.20;;;;;;4927102;29;20435;-68
2021/09/01 08:11:49;;;;;;;2.30;1.83;;;21.70;60.10;;;;;;4926966;29;20418;-67
2021/09/01 08:14:15;;;;;;;2.00;1.73;;;21.70;60.30;;;;;;4926767;29;20400;-68
2021/09/01 08:16:41;;;;;;;2.43;1.90;;;21.70;60.10;;;;;;4926744;29;20428;-68
2021/09/01 08:19:07;;;;;;;2.17;1.85;;;21.70;60.00;;;;;;4926869;29;20754;-68
2021/09/01 08:21:32;;;;;;;2.50;2.08;;;21.70;60.10;;;;;;4927008;29;20498;-68
2021/09/01 08:23:58;;;;;;;2.30;1.80;;;21.70;60.10;;;;;;4926288;29;20827;-67
2021/09/01 08:26:24;;;;;;;2.85;2.20;;;21.80;60.20;;;;;;4926604;29;20399;-67
2021/09/01 08:28:51;;;;;;;3.10;2.17;;;21.80;60.40;;;;;;4924737;29;20574;-68
2021/09/01 08:31:17;;;;;;;2.45;1.98;;;21.80;60.20;;;;;;4926772;29;20494;-67
2021/09/01 08:33:44;;;;;;;2.83;2.17;;;21.80;60.20;;;;;;4926348;29;20439;-68
2021/09/01 08:36:10;;;;;;;2.80;1.90;;;21.80;60.30;;;;;;4926153;29;20400;-67
2021/09/01 08:38:36;;;;;;;2.50;1.90;;;21.80;60.30;;;;;;4925210;29;20813;-68
2021/09/01 08:41:02;;;;;;;2.45;2.00;;;21.80;60.20;;;;;;4926551;29;20395;-67
2021/09/01 08:43:28;;;;;;;2.70;2.03;;;21.80;60.20;;;;;;4926700;29;20404;-67
2021/09/01 08:45:54;;;;;;;2.50;2.13;;;21.80;60.00;;;;;;4926126;29;20822;-68
2021/09/01 08:48:23;;;;;;;3.45;2.40;;;21.80;60.00;;;;;;4925953;29;21014;-67
2021/09/01 08:50:49;;;;;;;3.88;2.30;;;21.80;60.40;;;;;;4926389;29;20392;-68
2021/09/01 08:53:15;;;;;;;4.00;2.33;;;21.80;60.80;;;;;;4926192;29;20494;-68
2021/09/01 08:55:41;;;;;;;6.97;2.67;;;22.00;62.10;;;;;;4926182;29;20407;-68
2021/09/01 08:58:06;;;;;;;3.13;2.40;;;22.00;62.00;;;;;;4924851;29;20418;-68
2021/09/01 09:00:32;;;;;;;4.03;2.30;;;22.10;62.40;;;;;;4926048;29;20435;-68
2021/09/01 09:03:01;;;;;;;6.17;2.50;;;22.10;62.00;;;;;;4926302;29;20457;-68
2021/09/01 09:05:39;;;;;;;2.92;2.35;;;22.10;61.80;;;;;;4925987;29;20403;-67
2021/09/01 09:08:07;;;;;;;3.78;2.90;;;22.20;62.60;;;;;;4925171;29;20427;-68
2021/09/01 09:10:39;;;;;;;3.80;2.70;;;22.20;62.40;;;;;;4925929;29;20431;-68
2021/09/01 09:13:09;;;;;;;3.97;2.15;;;22.10;61.30;;;;;;4925813;29;20407;-68
2021/09/01 09:15:37;;;;;;;4.00;2.70;;;22.10;60.90;;;;;;4924700;29;20514;-69
2021/09/01 09:18:23;;;;;;;3.78;2.50;;;22.10;61.40;;;;;;4924564;29;20477;-68
2021/09/01 09:20:50;;;;;;;4.45;2.45;;;22.10;61.10;;;;;;4923192;29;20745;-68
2021/09/01 09:23:30;;;;;;;3.93;2.40;;;22.10;61.10;;;;;;4925070;29;20427;-68
2021/09/01 09:25:55;;;;;;;4.07;2.42;;;22.10;60.90;;;;;;4924818;29;20450;-68
2021/09/01 09:28:21;;;;;;;3.90;2.25;;;22.00;60.70;;;;;;4939055;28;20510;-69
2021/09/01 09:30:47;;;;;;;3.23;2.43;;;22.00;60.10;;;;;;4924627;29;20399;-69
2021/09/01 09:33:21;;;;;;;3.35;2.50;;;22.00;60.00;;;;;;4919892;29;20399;-69
2021/09/01 09:36:02;;;;;;;3.20;2.30;;;22.00;60.00;;;;;;4924774;29;20397;-69
2021/09/01 09:38:45;;;;;;;3.65;2.13;;;22.00;59.80;;;;;;4924591;29;21087;-69
2021/09/01 09:41:25;;;;;;;3.60;2.25;;;22.00;59.70;;;;;;4924972;29;20506;-69
2021/09/01 09:43:54;;;;;;;3.20;2.28;;;22.00;59.70;;;;;;4924751;29;20468;-69
2021/09/01 09:46:20;;;;;;;3.05;2.30;;;22.00;59.70;;;;;;4924132;29;20392;-69
2021/09/01 09:48:48;;;;;;;3.47;2.23;;;22.00;59.60;;;;;;4922727;29;20463;-68
2021/09/01 09:51:19;;;;;;;2.60;2.00;;;22.00;59.60;;;;;;4925141;29;20819;-69
2021/09/01 09:53:47;;;;;;;2.78;2.28;;;22.00;59.60;;;;;;4924302;29;20462;-68
2021/09/01 09:56:17;;;;;;;3.40;2.30;;;22.00;60.00;;;;;;4922754;29;20462;-69
2021/09/01 09:58:47;;;;;;;2.42;2.00;;;22.00;59.40;;;;;;4938399;28;20436;-70
2021/09/01 10:01:14;;;;;;;2.87;2.07;;;22.00;59.40;;;;;;4924403;29;20455;-68
2021/09/01 10:03:41;;;;;;;2.80;2.40;;;22.00;59.40;;;;;;4923729;29;20885;-68
2021/09/01 10:06:09;;;;;;;3.03;2.30;;;22.00;59.40;;;;;;4924227;29;20392;-68
2021/09/01 10:08:36;;;;;;;3.80;2.35;;;22.00;59.40;;;;;;4924529;29;20422;-69
2021/09/01 10:11:05;;;;;;;2.63;2.03;;;22.00;59.20;;;;;;4924717;29;20431;-69
2021/09/01 10:13:33;;;;;;;3.33;2.20;;;22.00;59.20;;;;;;4924164;29;20391;-68
2021/09/01 10:16:22;;;;;;;3.25;2.22;;;22.00;59.30;;;;;;4924225;29;20420;-68
2021/09/01 10:18:58;;;;;;;3.08;2.20;;;22.00;59.20;;;;;;4917406;29;20415;-68
2021/09/01 10:21:27;;;;;;;2.90;2.33;;;21.90;59.20;;;;;;4924702;29;20446;-68
2021/09/01 10:23:53;;;;;;;2.83;2.17;;;22.00;59.20;;;;;;4924237;29;20889;-69
2021/09/01 10:26:31;;;;;;;2.92;2.10;;;22.00;59.20;;;;;;4924080;29;20450;-70
2021/09/01 10:29:02;;;;;;;2.92;2.28;;;22.00;59.20;;;;;;4923912;29;20497;-69
2021/09/01 10:31:30;;;;;;;2.78;2.28;;;22.00;59.20;;;;;;4926392;29;20418;-69
2021/09/01 10:34:02;;;;;;;2.70;2.20;;;21.90;59.10;;;;;;4927792;29;20412;-69
2021/09/01 10:36:28;;;;;;;2.80;2.05;;;22.00;59.10;;;;;;4927784;29;20727;-68
2021/09/01 10:39:08;;;;;;;2.63;2.10;;;22.00;59.00;;;;;;4928230;29;20423;-68
2021/09/01 10:41:35;;;;;;;4.25;2.25;;;22.00;59.00;;;;;;4927902;29;21010;-69
2021/09/01 10:44:13;;;;;;;2.72;2.30;;;22.00;59.00;;;;;;4942318;28;20403;-69
2021/09/01 10:46:52;;;;;;;2.42;2.20;;;22.00;59.10;;;;;;4927280;29;20400;-69
2021/09/01 10:49:21;;;;;;;2.93;2.20;;;22.00;58.90;;;;;;4927039;29;20434;-70
2021/09/01 10:51:52;;;;;;;3.20;2.20;;;22.00;58.90;;;;;;4927194;29;20430;-69
2021/09/01 10:54:36;;;;;;;3.10;2.17;;;22.00;58.90;;;;;;4926808;29;20487;-70
2021/09/01 10:57:19;;;;;;;2.85;2.20;;;22.00;58.90;;;;;;4925967;29;20490;-69
2021/09/01 10:59:45;;;;;;;2.78;2.28;;;22.00;58.90;;;;;;4941935;28;20888;-68
2021/09/01 11:02:16;;;;;;;2.92;2.20;;;22.00;58.80;;;;;;4923364;29;20413;-69
2021/09/01 11:04:55;;;;;;;2.63;2.20;;;22.00;58.80;;;;;;4927501;29;20403;-69
2021/09/01 11:07:30;;;;;;;2.97;2.30;;;22.00;58.70;;;;;;4927693;29;20744;-68
2021/09/01 11:09:58;;;;;;;2.50;2.30;;;22.00;58.70;;;;;;4927157;29;20415;-68
2021/09/01 11:12:25;;;;;;;2.70;2.10;;;22.10;58.80;;;;;;4926459;29;20602;-69
2021/09/01 11:14:54;;;;;;;2.63;2.30;;;22.00;58.70;;;;;;4925282;29;20410;-69
2021/09/01 11:17:22;;;;;;;2.70;2.25;;;22.00;58.60;;;;;;4922296;29;20452;-68
2021/09/01 11:19:49;;;;;;;3.10;2.20;;;22.00;58.50;;;;;;4926676;29;20463;-68
2021/09/01 11:22:24;;;;;;;2.80;2.30;;;22.10;58.60;;;;;;4911085;29;20407;-68
2021/09/01 11:25:04;;;;;;;2.65;2.08;;;22.10;58.50;;;;;;4941662;28;20414;-69
2021/09/01 11:27:32;;;;;;;3.00;2.20;;;22.10;58.60;;;;;;4926690;29;20394;-69
2021/09/01 11:30:08;;;;;;;3.50;2.70;;;22.10;58.60;;;;;;4926800;29;20467;-70
2021/09/01 11:32:36;;;;;;;2.50;2.20;;;22.10;58.50;;;;;;4926736;29;20400;-68
2021/09/01 11:35:05;;;;;;;2.72;2.30;;;22.10;58.60;;;;;;4926606;29;20404;-69
2021/09/01 11:37:31;;;;;;;4.05;2.50;;;22.10;58.60;;;;;;4926904;29;20884;-68
2021/09/01 11:39:57;;;;;;;3.00;2.40;;;22.10;58.60;;;;;;4925732;29;20418;-68
2021/09/01 11:42:23;;;;;;;2.60;2.08;;;22.00;58.50;;;;;;4926424;29;20564;-69
2021/09/01 11:44:56;;;;;;;3.10;2.40;;;22.10;58.60;;;;;;4925601;29;20414;-69
2021/09/01 11:47:22;;;;;;;2.70;2.20;;;22.00;58.40;;;;;;4926442;29;20418;-69
2021/09/01 11:49:53;;;;;;;2.67;2.17;;;22.00;58.50;;;;;;4926739;29;20412;-69
2021/09/01 11:52:29;;;;;;;2.30;2.10;;;22.10;58.50;;;;;;4926560;29;20431;-68
2021/09/01 11:54:55;;;;;;;2.58;2.05;;;22.10;58.50;;;;;;4924984;29;20883;-69
2021/09/01 11:57:31;;;;;;;2.85;2.30;;;22.10;58.50;;;;;;4926523;29;20396;-68
2021/09/01 11:59:58;;;;;;;2.42;2.20;;;22.10;58.40;;;;;;4926273;29;20827;-69
2021/09/01 12:02:31;;;;;;;2.90;2.38;;;22.10;58.30;;;;;;4925626;29;20414;-68
2021/09/01 12:04:57;;;;;;;2.75;2.20;;;22.10;58.10;;;;;;4925795;29;20408;-69
2021/09/01 12:07:31;;;;;;;2.73;2.20;;;22.10;58.20;;;;;;4924610;29;20502;-69
2021/09/01 12:10:05;;;;;;;2.85;2.20;;;22.20;58.30;;;;;;4926008;29;20407;-69
2021/09/01 12:12:35;;;;;;;2.88;2.33;;;22.20;58.30;;;;;;4925592;29;20804;-68
2021/09/01 12:15:13;;;;;;;2.50;2.07;;;22.20;58.30;;;;;;4926005;29;20515;-68
2021/09/01 12:17:44;;;;;;;2.83;2.30;;;22.20;58.20;;;;;;4926080;29;20442;-69
2021/09/01 12:20:16;;;;;;;2.67;2.20;;;22.20;58.20;;;;;;4926198;29;20402;-69
2021/09/01 12:22:44;;;;;;;2.83;2.10;;;22.20;58.10;;;;;;4925933;29;20419;-68
2021/09/01 12:25:16;;;;;;;2.70;2.20;;;22.20;58.10;;;;;;4926438;29;20411;-69
2021/09/01 12:28:08;;;;;;;2.70;2.10;;;22.20;58.10;;;;;;4925576;29;21007;-69
2021/09/01 12:30:36;;;;;;;2.80;2.22;;;22.20;58.00;;;;;;4927794;28;20412;-69
2021/09/01 12:33:10;;;;;;;2.58;2.15;;;22.20;58.00;;;;;;4925601;29;20430;-70
2021/09/01 12:35:37;;;;;;;2.90;2.50;;;22.20;58.00;;;;;;4925855;29;20419;-68
2021/09/01 12:38:04;;;;;;;2.50;2.20;;;22.30;58.00;;;;;;4940592;28;20407;-69
2021/09/01 12:40:33;;;;;;;2.50;2.10;;;22.20;58.00;;;;;;4925404;29;20405;-68
2021/09/01 12:43:10;;;;;;;2.67;2.25;;;22.30;57.90;;;;;;4924132;29;20895;-69
2021/09/01 12:45:40;;;;;;;2.80;2.25;;;22.30;58.00;;;;;;4926045;29;20410;-69
2021/09/01 12:48:18;;;;;;;2.33;1.98;;;22.30;57.90;;;;;;4926402;29;20434;-69
2021/09/01 12:50:48;;;;;;;2.80;2.20;;;22.30;57.90;;;;;;4925837;29;20816;-69